German Flatts, New York
Current Conditions -  °F | °C
As of 5:53 PM on Friday 28 Nov 2014 (Local Time) from KRME Reporting Station
Overcast Overcast  
Wind Chill: 14°   Ceiling: 4300
Heat Index: 23°   Visibility: 10mi
Dew Point: 18°   Wind: 8mph
Humidity: 81%   Direction: 290°WNW
Pressure: 30.22"   Gusts: NA
Location:  42.9627°N, 74.9432°W
Report Text: KRME 282253Z 29007KT 10SM SCT027 BKN043 OVC050 M05/M08 A3022 RMK AO2 UPB16E18B29E38SNE16B18E29 SLP239 P0000 T10501078
Loading
Personal Weather Stations






























Interactive Weather Map New forecast layout! Learn more

10-Day Weather Forecast

Advertisements
Track Severe Weather on mobile